Time;durP1;ratioP1;P1;durP2;ratioP2;P2;SDS_P1;SDS_P2;PMS_P1;PMS_P2;Temp;Humidity;BMP_temperature;BMP_pressure;BME280_temperature;BME280_humidity;BME280_pressure;Samples;Min_cycle;Max_cycle;Signal;HPM_P1;HPM_P2
2021/12/13 00:00:22;;;;;;;6.90;3.45;;;;;;;7.66;100.00;102053.69;6201126;28;20077;-77
2021/12/13 00:03:29;;;;;;;7.43;2.67;;;;;;;7.66;100.00;102053.69;6212076;28;20053;-77
2021/12/13 00:06:35;;;;;;;11.02;3.70;;;;;;;7.65;100.00;102055.44;6207368;28;20418;-77
2021/12/13 00:09:42;;;;;;;8.10;4.28;;;;;;;7.63;100.00;102055.50;6200761;28;20073;-78
2021/12/13 00:12:47;;;;;;;4.40;2.45;;;;;;;7.65;100.00;102058.06;6200630;28;20505;-77
2021/12/13 00:15:52;;;;;;;15.13;4.68;;;;;;;7.71;100.00;102052.69;6201119;28;20054;-77
2021/12/13 00:18:58;;;;;;;9.50;3.30;;;;;;;7.70;100.00;102055.34;6200897;28;20046;-77
2021/12/13 00:22:03;;;;;;;4.80;2.92;;;;;;;7.70;100.00;102061.44;6220161;28;20057;-77
2021/12/13 00:25:07;;;;;;;8.10;3.22;;;;;;;7.68;100.00;102058.03;6224836;28;20049;-77
2021/12/13 00:28:15;;;;;;;5.95;2.83;;;;;;;7.65;100.00;102047.59;6224325;28;20421;-77
2021/12/13 00:31:25;;;;;;;4.50;2.63;;;;;;;7.66;100.00;102053.69;6223874;28;20068;-77
2021/12/13 00:34:33;;;;;;;7.30;3.35;;;;;;;7.65;100.00;102059.81;6200587;28;20097;-77
2021/12/13 00:37:39;;;;;;;7.95;3.40;;;;;;;7.67;100.00;102066.72;6200159;28;20061;-77
2021/12/13 00:40:44;;;;;;;4.65;2.33;;;;;;;7.67;100.00;102063.25;6200079;28;20057;-77
2021/12/13 00:43:52;;;;;;;11.60;2.92;;;;;;;7.72;100.00;102064.03;6200125;28;20057;-78
2021/12/13 00:46:57;;;;;;;6.15;2.75;;;;;;;7.74;100.00;102062.25;6200355;28;20050;-77
2021/12/13 00:50:04;;;;;;;5.30;2.58;;;;;;;7.75;100.00;102062.22;6199675;28;20495;-77
2021/12/13 00:53:07;;;;;;;7.65;3.08;;;;;;;7.79;100.00;102065.63;6200313;28;20050;-77
2021/12/13 00:56:43;;;;;;;7.28;3.22;;;;;;;7.77;100.00;102060.44;6199657;28;20506;-77
2021/12/13 00:59:50;;;;;;;6.85;2.53;;;;;;;7.78;100.00;102070.00;6199623;28;20046;-77
2021/12/13 01:02:56;;;;;;;10.40;3.63;;;;;;;7.87;100.00;102076.81;6199255;28;20457;-77
2021/12/13 01:06:58;;;;;;;7.72;3.80;;;;;;;7.92;100.00;102071.50;6199616;28;20054;-77
2021/12/13 01:10:45;;;;;;;6.32;2.78;;;;;;;7.94;100.00;102075.78;6199160;28;20050;-77
2021/12/13 01:14:07;;;;;;;4.55;2.83;;;;;;;7.94;100.00;102074.91;6200097;28;20050;-77
2021/12/13 01:17:22;;;;;;;5.70;2.53;;;;;;;7.94;100.00;102082.78;6199268;28;20054;-78
2021/12/13 01:20:41;;;;;;;9.52;3.83;;;;;;;7.97;100.00;102085.34;6199132;28;20626;-77
2021/12/13 01:23:48;;;;;;;;;;;;;;;7.99;100.00;102096.63;6209809;28;20156;-77
2021/12/13 01:26:54;;;;;;;8.50;3.17;;;;;;;8.04;100.00;102100.00;6223270;28;19957;-77
2021/12/13 01:29:55;;;;;;;6.60;3.58;;;;;;;8.06;100.00;102106.94;6222979;28;20053;-77
2021/12/13 01:32:59;;;;;;;6.28;3.28;;;;;;;8.06;100.00;102090.38;6223296;28;20053;-78
2021/12/13 01:36:05;;;;;;;5.28;2.72;;;;;;;8.04;100.00;102097.38;6223135;28;20193;-78
2021/12/13 01:39:09;;;;;;;7.15;3.28;;;;;;;8.05;100.00;102100.00;6222523;28;20045;-77
2021/12/13 01:42:15;;;;;;;8.48;3.17;;;;;;;8.06;100.00;102111.31;6222981;28;20056;-77
2021/12/13 01:45:17;;;;;;;4.90;2.25;;;;;;;8.07;100.00;102110.41;6223160;28;20042;-78
2021/12/13 01:48:25;;;;;;;9.52;4.38;;;;;;;8.09;100.00;102112.13;6223001;28;20461;-77
2021/12/13 01:51:33;;;;;;;7.88;3.75;;;;;;;8.10;100.00;102111.22;6221131;28;20054;-77
2021/12/13 01:54:39;;;;;;;5.80;4.30;;;;;;;8.11;100.00;102125.19;6222888;28;20046;-77
2021/12/13 01:57:47;;;;;;;10.65;4.35;;;;;;;8.12;100.00;102124.28;6223174;28;20056;-77
2021/12/13 02:01:11;;;;;;;5.85;3.03;;;;;;;8.16;100.00;102128.56;6222976;28;20057;-77
2021/12/13 02:04:15;;;;;;;12.02;5.05;;;;;;;8.16;100.00;102119.84;6223049;28;20133;-77
2021/12/13 02:07:17;;;;;;;13.05;4.05;;;;;;;8.18;100.00;102121.53;6222586;28;20046;-76
2021/12/13 02:10:23;;;;;;;9.30;3.83;;;;;;;8.20;100.00;102124.13;6222256;28;20042;-78
2021/12/13 02:13:28;;;;;;;7.45;3.53;;;;;;;8.19;100.00;102125.88;6223033;28;20229;-77
2021/12/13 02:19:59;;;;;;;10.43;4.05;;;;;;;8.21;100.00;102131.94;6222509;28;20050;-77
2021/12/13 02:23:03;;;;;;;9.00;4.13;;;;;;;8.22;100.00;102131.06;6222261;28;20131;-77
2021/12/13 02:26:07;;;;;;;11.27;3.70;;;;;;;8.21;100.00;102125.84;6222327;28;20501;-77
2021/12/13 02:29:15;;;;;;;8.70;3.80;;;;;;;8.22;100.00;102124.94;6222711;28;20054;-77
2021/12/13 02:32:17;;;;;;;9.82;4.07;;;;;;;8.22;100.00;102127.56;6222200;28;20386;-77
2021/12/13 02:35:21;;;;;;;11.75;4.88;;;;;;;8.23;100.00;102130.16;6222359;28;20056;-77
2021/12/13 02:38:25;;;;;;;10.88;3.67;;;;;;;8.27;100.00;102128.34;6222008;28;20049;-77
2021/12/13 02:41:32;;;;;;;9.63;4.28;;;;;;;8.28;100.00;102132.69;6203117;28;20045;-77
2021/12/13 02:44:38;;;;;;;9.88;4.55;;;;;;;8.29;100.00;102137.88;6214456;28;20057;-77
2021/12/13 02:47:45;;;;;;;11.30;4.68;;;;;;;8.26;100.00;102140.56;6222376;28;20060;-77
2021/12/13 02:50:52;;;;;;;8.65;3.53;;;;;;;8.23;100.00;102140.63;6215223;28;20125;-77
2021/12/13 02:53:59;;;;;;;9.48;4.65;;;;;;;8.19;100.00;102136.34;6226166;28;20060;-78
2021/12/13 02:57:06;;;;;;;10.73;4.15;;;;;;;8.20;100.00;102140.69;6227087;28;20060;-77
2021/12/13 03:00:14;;;;;;;7.20;3.13;;;;;;;8.17;100.00;102143.38;6226587;28;20038;-77
2021/12/13 03:03:20;;;;;;;11.20;4.10;;;;;;;8.13;100.00;102142.59;6218518;28;20053;-78
2021/12/13 03:06:24;;;;;;;15.45;4.47;;;;;;;8.13;100.00;102141.72;6226505;28;20061;-77
2021/12/13 03:09:31;;;;;;;8.52;3.60;;;;;;;8.13;100.00;102139.13;6226443;28;20390;-77
2021/12/13 03:12:32;;;;;;;13.30;4.07;;;;;;;8.13;100.00;102145.22;6225737;28;20046;-77
2021/12/13 03:15:34;;;;;;;7.82;4.07;;;;;;;8.10;100.00;102141.78;6224264;28;20065;-77
2021/12/13 03:18:42;;;;;;;8.07;3.90;;;;;;;8.09;100.00;102145.31;6220093;28;20053;-77
2021/12/13 03:22:08;;;;;;;8.27;3.60;;;;;;;8.08;100.00;102135.69;6216122;28;20394;-77
2021/12/13 03:25:18;;;;;;;10.98;4.07;;;;;;;8.09;100.00;102142.69;6226585;28;20053;-77
2021/12/13 03:28:34;;;;;;;11.35;2.78;;;;;;;8.08;100.00;102143.56;6226257;28;20255;-77
2021/12/13 03:31:40;;;;;;;6.95;3.13;;;;;;;8.07;100.00;102141.84;6225179;28;20528;-77
2021/12/13 03:34:51;;;;;;;8.93;3.95;;;;;;;8.08;100.00;102143.56;6225926;28;20053;-77
2021/12/13 03:38:00;;;;;;;10.50;4.13;;;;;;;8.07;100.00;102145.31;6225736;28;20046;-77
2021/12/13 03:41:07;;;;;;;8.18;4.13;;;;;;;8.08;100.00;102141.81;6220059;28;20046;-77
2021/12/13 03:44:12;;;;;;;12.25;4.45;;;;;;;8.11;100.00;102156.59;6223818;28;20053;-77
2021/12/13 03:47:17;;;;;;;10.57;3.30;;;;;;;8.13;100.00;102163.53;6225680;28;20052;-78
2021/12/13 03:50:23;;;;;;;10.02;4.18;;;;;;;8.13;100.00;102158.31;6225175;28;20394;-78
2021/12/13 03:53:32;;;;;;;5.10;2.83;;;;;;;8.13;100.00;102160.06;6211302;28;20073;-77
2021/12/13 03:56:37;;;;;;;;;;;;;;;8.17;100.00;102160.84;6200982;28;20054;-77
2021/12/13 03:59:42;;;;;;;12.40;4.43;;;;;;;8.20;100.00;102161.63;6214564;28;19921;-77
2021/12/13 04:02:44;;;;;;;10.23;4.75;;;;;;;8.26;100.00;102168.50;6224066;28;20497;-76
2021/12/13 04:05:47;;;;;;;11.73;4.53;;;;;;;8.32;100.00;102166.63;6224835;28;20049;-77
2021/12/13 04:08:51;;;;;;;10.93;4.35;;;;;;;8.30;100.00;102168.41;6224471;28;20050;-77
2021/12/13 04:11:57;;;;;;;14.45;4.47;;;;;;;8.33;100.00;102163.09;6224559;28;20057;-77
2021/12/13 04:15:02;;;;;;;11.20;3.90;;;;;;;8.32;100.00;102168.38;6224350;28;20057;-77
2021/12/13 04:18:16;;;;;;;10.02;4.63;;;;;;;8.31;100.00;102174.50;6224719;28;20050;-77
2021/12/13 04:21:18;;;;;;;11.88;4.53;;;;;;;8.32;100.00;102171.00;6224285;28;20053;-77
2021/12/13 04:24:35;;;;;;;13.55;5.32;;;;;;;8.32;100.00;102181.50;6222640;28;20060;-77
2021/12/13 04:27:41;;;;;;;10.02;4.30;;;;;;;8.29;100.00;102174.53;6224407;28;20061;-77
2021/12/13 04:30:46;;;;;;;9.25;4.53;;;;;;;8.31;100.00;102177.13;6224128;28;20485;-77
2021/12/13 04:33:51;;;;;;;12.75;4.22;;;;;;;8.31;100.00;102170.16;6224344;28;20060;-78
2021/12/13 04:36:56;;;;;;;10.13;5.07;;;;;;;8.32;100.00;102176.25;6219649;28;20042;-77
2021/12/13 04:40:00;;;;;;;7.30;3.92;;;;;;;8.32;100.00;102174.50;6223533;28;20072;-77
2021/12/13 04:43:07;;;;;;;9.85;4.40;;;;;;;8.32;100.00;102177.09;6216169;28;20045;-77
2021/12/13 04:46:11;;;;;;;10.25;3.85;;;;;;;8.36;100.00;102175.28;6223693;28;20049;-78
2021/12/13 04:49:15;;;;;;;9.10;3.38;;;;;;;8.31;100.00;102171.88;6216853;28;20482;-77
2021/12/13 04:52:20;;;;;;;14.48;4.57;;;;;;;8.34;100.00;102180.53;6221194;28;20054;-78
2021/12/13 04:55:24;;;;;;;13.32;4.22;;;;;;;8.35;100.00;102181.41;6223763;28;20416;-77
2021/12/13 04:58:29;;;;;;;12.63;5.05;;;;;;;8.35;100.00;102177.03;6223717;28;20508;-77
2021/12/13 05:01:30;;;;;;;17.48;4.05;;;;;;;8.38;100.00;102184.84;6223439;28;20054;-77
2021/12/13 05:04:32;;;;;;;10.07;3.63;;;;;;;8.38;100.00;102184.00;6215384;28;20519;-77
2021/12/13 05:07:34;;;;;;;10.15;3.67;;;;;;;8.37;100.00;102188.38;6223689;28;20572;-77
2021/12/13 05:10:37;;;;;;;14.02;4.63;;;;;;;8.36;100.00;102189.28;6223255;28;20046;-77
2021/12/13 05:13:45;;;;;;;11.30;4.63;;;;;;;8.39;100.00;102193.56;6223504;28;20057;-76
2021/12/13 05:16:49;;;;;;;6.47;3.58;;;;;;;8.40;100.00;102192.66;6223422;28;20061;-77
2021/12/13 05:19:54;;;;;;;9.00;3.42;;;;;;;8.39;100.00;102202.28;6223563;28;20515;-77
2021/12/13 05:22:59;;;;;;;8.52;3.75;;;;;;;8.39;100.00;102197.06;6209568;28;20046;-77
2021/12/13 05:26:05;;;;;;;9.55;4.03;;;;;;;8.40;100.00;102200.53;6212450;28;20432;-77
2021/12/13 05:29:22;;;;;;;12.63;4.43;;;;;;;8.41;100.00;102202.28;6223309;28;20058;-77
2021/12/13 05:32:28;;;;;;;8.50;3.40;;;;;;;8.41;100.00;102204.03;6223595;28;20049;-77
2021/12/13 05:35:33;;;;;;;10.95;4.45;;;;;;;8.42;100.00;102209.25;6223094;28;20046;-77
2021/12/13 05:38:40;;;;;;;16.60;4.55;;;;;;;8.41;100.00;102202.28;6214237;28;20517;-76
2021/12/13 05:41:50;;;;;;;11.35;3.67;;;;;;;8.41;100.00;102198.81;6209270;28;20584;-77
2021/12/13 05:44:53;;;;;;;9.43;3.70;;;;;;;8.39;100.00;102206.69;6208407;28;20054;-76
2021/12/13 05:47:58;;;;;;;9.30;4.75;;;;;;;8.42;100.00;102216.25;6200520;28;20046;-75
2021/12/13 05:51:02;;;;;;;13.38;3.72;;;;;;;8.41;100.00;102212.75;6219211;28;20046;-77
2021/12/13 05:54:08;;;;;;;8.15;4.05;;;;;;;8.37;100.00;102214.56;6221356;28;20053;-77
2021/12/13 05:57:14;;;;;;;16.40;5.57;;;;;;;8.43;100.00;102216.19;6219571;28;20050;-76
2021/12/13 06:00:22;;;;;;;10.27;4.15;;;;;;;8.40;100.00;102216.25;6210743;28;20045;-76
2021/12/13 06:03:31;;;;;;;11.98;4.82;;;;;;;8.39;100.00;102223.25;6203498;28;20046;-76
2021/12/13 06:06:35;;;;;;;12.23;5.65;;;;;;;8.42;100.00;102224.97;6198097;28;20046;-76
2021/12/13 06:09:47;;;;;;;12.65;4.82;;;;;;;8.41;100.00;102225.84;6199970;28;20054;-76
2021/12/13 06:12:52;;;;;;;11.52;4.55;;;;;;;8.43;100.00;102228.44;6222198;28;20054;-75
2021/12/13 06:15:58;;;;;;;14.00;4.85;;;;;;;8.43;100.00;102231.91;6222158;28;20046;-76
2021/12/13 06:19:04;;;;;;;14.32;5.47;;;;;;;8.45;100.00;102235.38;6222422;28;20050;-76
2021/12/13 06:22:10;;;;;;;11.07;4.53;;;;;;;8.47;100.00;102228.34;6213307;28;20065;-77
2021/12/13 06:25:17;;;;;;;15.55;5.07;;;;;;;8.50;100.00;102236.16;6199975;28;20053;-76
2021/12/13 06:28:23;;;;;;;9.80;4.10;;;;;;;8.48;100.00;102239.69;6202409;28;20541;-77
2021/12/13 06:31:36;;;;;;;8.65;4.07;;;;;;;8.48;100.00;102239.69;6202536;28;20046;-76
2021/12/13 06:34:38;;;;;;;13.60;3.53;;;;;;;8.46;100.00;102246.72;6202660;28;20054;-77
2021/12/13 06:37:39;;;;;;;10.02;4.20;;;;;;;8.46;100.00;102247.59;6217979;28;20057;-76
2021/12/13 06:40:49;;;;;;;18.85;4.57;;;;;;;8.48;100.00;102253.63;6226235;28;20061;-77
2021/12/13 06:43:54;;;;;;;8.98;3.75;;;;;;;8.48;100.00;102261.50;6218405;28;20045;-77
2021/12/13 06:47:00;;;;;;;13.30;3.95;;;;;;;8.50;100.00;102259.72;6226589;28;20046;-77
2021/12/13 06:50:02;;;;;;;9.50;3.72;;;;;;;8.48;100.00;102256.25;6214561;28;20042;-76
2021/12/13 06:53:10;;;;;;;9.77;3.47;;;;;;;8.52;100.00;102263.16;6222249;28;20053;-76
2021/12/13 06:56:22;;;;;;;12.35;4.10;;;;;;;8.51;100.00;102271.06;6226177;28;20497;-77
2021/12/13 06:59:24;;;;;;;8.18;3.10;;;;;;;8.50;100.00;102277.22;6217242;28;20057;-76
2021/12/13 07:02:29;;;;;;;9.65;3.78;;;;;;;8.53;100.00;102277.97;6226127;28;20057;-77
2021/12/13 07:05:33;;;;;;;8.43;2.78;;;;;;;8.50;100.00;102271.97;6225933;28;20050;-77
2021/12/13 07:08:37;;;;;;;10.15;3.97;;;;;;;8.51;100.00;102281.53;6217840;28;20050;-76
2021/12/13 07:11:43;;;;;;;8.63;3.60;;;;;;;8.50;100.00;102278.06;6206746;28;20050;-77
2021/12/13 07:14:44;;;;;;;8.48;3.80;;;;;;;8.55;100.00;102275.34;6201355;28;20054;-76
2021/12/13 07:18:01;;;;;;;6.57;3.38;;;;;;;8.52;100.00;102285.88;6201377;28;20050;-76
2021/12/13 07:21:06;;;;;;;5.70;2.88;;;;;;;8.50;100.00;102296.41;6204196;28;20053;-77
2021/12/13 07:24:10;;;;;;;8.27;3.20;;;;;;;8.54;100.00;102305.94;6225628;28;20049;-76
2021/12/13 07:27:15;;;;;;;6.70;3.22;;;;;;;8.55;100.00;102301.56;6225643;28;20060;-76
2021/12/13 07:30:19;;;;;;;9.98;4.10;;;;;;;8.54;100.00;102302.44;6224570;28;20536;-76
2021/12/13 07:33:34;;;;;;;6.95;3.63;;;;;;;8.51;100.00;102305.13;6217426;28;20137;-76
2021/12/13 07:36:36;;;;;;;7.35;3.28;;;;;;;8.56;100.00;102301.50;6224152;28;20054;-77
2021/12/13 07:39:38;;;;;;;10.02;3.85;;;;;;;8.52;100.00;102304.22;6225454;28;20056;-77
2021/12/13 07:42:39;;;;;;;7.22;3.63;;;;;;;8.52;100.00;102302.47;6224988;28;20046;-78
2021/12/13 07:45:46;;;;;;;6.03;3.65;;;;;;;8.52;100.00;102294.59;6224943;28;20058;-77
2021/12/13 07:48:55;;;;;;;6.90;3.47;;;;;;;8.48;100.00;102313.03;6223994;28;20052;-77
2021/12/13 07:52:00;;;;;;;7.15;2.97;;;;;;;8.44;100.00;102314.84;6211828;28;20120;-76
2021/12/13 07:55:14;;;;;;;6.60;3.20;;;;;;;8.42;100.00;102318.41;6220925;28;20130;-76
2021/12/13 07:58:32;;;;;;;13.38;3.38;;;;;;;8.43;100.00;102325.38;6223638;28;20057;-75
2021/12/13 08:01:41;;;;;;;8.05;3.13;;;;;;;8.42;100.00;102327.13;6222108;28;20053;-76
2021/12/13 08:04:47;;;;;;;;;;;;;;;8.43;100.00;102328.84;6205959;28;20050;-76
2021/12/13 08:07:53;;;;;;;7.40;3.38;;;;;;;8.42;100.00;102328.88;6208768;28;20333;-75
2021/12/13 08:10:58;;;;;;;17.35;3.60;;;;;;;8.42;100.00;102334.13;6220443;28;20058;-76
2021/12/13 08:14:00;;;;;;;6.50;2.83;;;;;;;8.47;100.00;102340.13;6216261;28;20042;-76
2021/12/13 08:17:10;;;;;;;7.45;3.08;;;;;;;8.43;100.00;102346.31;6219473;28;20053;-75
2021/12/13 08:20:21;;;;;;;6.68;3.03;;;;;;;8.41;100.00;102340.25;6223583;28;20129;-75
2021/12/13 08:23:26;;;;;;;9.40;3.08;;;;;;;8.41;100.00;102351.59;6200065;28;20073;-76
2021/12/13 08:26:32;;;;;;;7.82;3.63;;;;;;;8.40;100.00;102355.09;6199588;28;20137;-75
2021/12/13 08:29:36;;;;;;;8.82;3.25;;;;;;;8.41;100.00;102356.84;6205503;28;20046;-76
2021/12/13 08:32:38;;;;;;;4.50;2.70;;;;;;;8.42;100.00;102357.69;6223658;28;20050;-76
2021/12/13 08:35:51;;;;;;;8.10;3.20;;;;;;;8.42;100.00;102360.31;6222964;28;20046;-76
2021/12/13 08:39:06;;;;;;;5.68;3.13;;;;;;;8.41;100.00;102363.84;6215506;28;20050;-76
2021/12/13 08:42:12;;;;;;;7.93;3.30;;;;;;;8.38;100.00;102367.38;6218754;28;20052;-76
2021/12/13 08:45:20;;;;;;;6.43;2.55;;;;;;;8.37;100.00;102363.88;6215103;28;20053;-75
2021/12/13 08:48:22;;;;;;;10.43;4.28;;;;;;;8.38;100.00;102365.59;6222941;28;20509;-74
2021/12/13 08:51:30;;;;;;;6.35;3.38;;;;;;;8.35;100.00;102364.75;6208845;28;20493;-75
2021/12/13 08:54:37;;;;;;;8.25;3.33;;;;;;;8.33;100.00;102372.66;6212829;28;20049;-76
2021/12/13 08:57:45;;;;;;;5.50;2.30;;;;;;;8.36;100.00;102370.03;6220512;28;20509;-76
2021/12/13 09:00:55;;;;;;;9.23;3.63;;;;;;;8.43;100.00;102377.75;6223037;28;20053;-76
2021/12/13 09:03:56;;;;;;;7.63;2.88;;;;;;;8.46;100.00;102377.72;6223299;28;20050;-77
2021/12/13 09:07:03;;;;;;;6.45;2.90;;;;;;;8.44;100.00;102369.84;6223325;28;20053;-76
2021/12/13 09:10:05;;;;;;;8.32;2.72;;;;;;;8.46;100.00;102375.09;6222649;28;20054;-76
2021/12/13 09:13:06;;;;;;;8.88;3.33;;;;;;;8.45;100.00;102384.72;6222334;28;20049;-75
2021/12/13 09:16:09;;;;;;;9.52;3.80;;;;;;;8.44;100.00;102385.56;6214547;28;20042;-75
2021/12/13 09:19:18;;;;;;;10.20;3.83;;;;;;;8.45;100.00;102389.94;6206524;28;20466;-75
2021/12/13 09:22:24;;;;;;;7.53;2.95;;;;;;;8.44;100.00;102387.34;6215659;28;20437;-76
2021/12/13 09:25:31;;;;;;;11.85;3.80;;;;;;;8.45;100.00;102395.19;6213568;28;20524;-71
2021/12/13 09:28:35;;;;;;;4.80;2.88;;;;;;;8.47;100.00;102397.78;6219267;28;20058;-76
2021/12/13 09:31:39;;;;;;;5.75;3.20;;;;;;;8.48;100.00;102405.59;6195972;28;20379;-76
2021/12/13 09:34:41;;;;;;;8.52;3.45;;;;;;;8.51;100.00;102396.84;6210548;28;20053;-76
2021/12/13 09:37:43;;;;;;;8.43;2.72;;;;;;;8.50;100.00;102405.59;6220562;28;20053;-77
2021/12/13 09:40:49;;;;;;;6.75;3.15;;;;;;;8.50;100.00;102402.97;6221514;28;20049;-78
2021/12/13 09:43:54;;;;;;;10.30;5.18;;;;;;;8.52;100.00;102402.03;6223517;28;20061;-78
2021/12/13 09:47:01;;;;;;;8.85;4.07;;;;;;;8.48;100.00;102402.97;6222537;28;20052;-76
2021/12/13 09:50:10;;;;;;;8.18;3.45;;;;;;;8.50;100.00;102402.97;6212488;28;20413;-75
2021/12/13 09:53:14;;;;;;;8.55;3.75;;;;;;;8.47;100.00;102396.00;6198636;28;20058;-77
2021/12/13 09:56:21;;;;;;;7.47;3.15;;;;;;;8.48;100.00;102396.88;6197987;28;20391;-76
2021/12/13 09:59:27;;;;;;;8.65;4.10;;;;;;;8.49;100.00;102398.59;6199130;28;20058;-75
2021/12/13 10:02:32;;;;;;;12.10;3.90;;;;;;;8.47;100.00;102398.63;6202743;28;20136;-75
2021/12/13 10:05:38;;;;;;;10.32;4.07;;;;;;;8.46;100.00;102398.69;6203267;28;20061;-77
2021/12/13 10:08:45;;;;;;;11.25;4.32;;;;;;;8.45;100.00;102391.69;6201482;28;20062;-77
2021/12/13 10:11:51;;;;;;;8.20;3.63;;;;;;;8.44;100.00;102397.81;6201937;28;20046;-77
2021/12/13 10:14:56;;;;;;;10.65;4.50;;;;;;;8.41;100.00;102385.66;6201636;28;20051;-76
2021/12/13 10:18:01;;;;;;;9.73;4.25;;;;;;;8.40;100.00;102391.75;6202043;28;20062;-75
2021/12/13 10:21:06;;;;;;;12.52;5.68;;;;;;;8.39;100.00;102398.75;6202979;28;20050;-77
2021/12/13 10:24:14;;;;;;;10.30;4.55;;;;;;;8.37;100.00;102397.94;6203095;28;20053;-77
2021/12/13 10:27:16;;;;;;;10.80;4.30;;;;;;;8.35;100.00;102391.81;6202782;28;20413;-76
2021/12/13 10:30:22;;;;;;;12.10;5.57;;;;;;;8.37;100.00;102392.69;6202249;28;20050;-76
2021/12/13 10:33:27;;;;;;;8.60;4.03;;;;;;;8.34;100.00;102390.09;6203370;28;20050;-77
2021/12/13 10:36:29;;;;;;;14.13;5.45;;;;;;;8.32;100.00;102380.56;6215080;28;20493;-77
2021/12/13 10:39:36;;;;;;;11.10;4.53;;;;;;;8.31;100.00;102381.41;6211992;28;20046;-77
2021/12/13 10:42:44;;;;;;;8.48;4.82;;;;;;;8.31;100.00;102386.66;6218120;28;20050;-77
2021/12/13 10:45:51;;;;;;;14.38;5.50;;;;;;;8.30;100.00;102393.66;6226278;28;20062;-75
2021/12/13 10:48:56;;;;;;;11.95;5.18;;;;;;;8.30;100.00;102387.56;6222197;28;20046;-76
2021/12/13 10:52:07;;;;;;;9.77;4.22;;;;;;;8.28;100.00;102384.13;6205993;28;20049;-77
2021/12/13 10:55:16;;;;;;;15.05;6.03;;;;;;;8.28;100.00;102390.22;6202217;28;20054;-75
2021/12/13 10:58:21;;;;;;;10.70;5.00;;;;;;;8.29;100.00;102398.94;6211334;28;20053;-76
2021/12/13 11:01:26;;;;;;;10.57;4.72;;;;;;;8.29;100.00;102385.84;6212645;28;20052;-76
2021/12/13 11:04:36;;;;;;;14.13;5.10;;;;;;;8.28;100.00;102394.59;6218794;28;20054;-75
2021/12/13 11:07:39;;;;;;;11.25;5.00;;;;;;;8.24;100.00;102388.53;6226312;28;20519;-78
2021/12/13 11:10:47;;;;;;;9.63;5.07;;;;;;;8.28;100.00;102391.97;6225543;28;20053;-77
2021/12/13 11:13:51;;;;;;;15.73;4.85;;;;;;;8.24;100.00;102392.91;6226052;28;20049;-77
2021/12/13 11:16:57;;;;;;;12.73;4.80;;;;;;;8.23;100.00;102392.03;6226649;28;20057;-78
2021/12/13 11:20:04;;;;;;;13.75;5.15;;;;;;;8.22;100.00;102385.09;6215218;28;20490;-77
2021/12/13 11:23:09;;;;;;;12.23;5.07;;;;;;;8.20;100.00;102392.09;6213279;28;20046;-78
2021/12/13 11:26:15;;;;;;;13.95;5.82;;;;;;;8.20;100.00;102384.22;6208411;28;20050;-77
2021/12/13 11:29:17;;;;;;;9.20;5.05;;;;;;;8.21;100.00;102392.94;6201820;28;20127;-78
2021/12/13 11:32:54;;;;;;;14.18;6.47;;;;;;;8.23;100.00;102393.81;6201386;28;20073;-78
2021/12/13 11:36:24;;;;;;;14.38;6.15;;;;;;;8.25;100.00;102394.63;6201145;28;20050;-77
2021/12/13 11:39:30;;;;;;;;;;;;;;;8.22;100.00;102392.94;6201880;28;20061;-77
2021/12/13 11:42:51;;;;;;;13.25;5.82;;;;;;;8.19;100.00;102395.59;6200913;28;19928;-77
2021/12/13 11:46:29;;;;;;;16.95;5.88;;;;;;;8.19;100.00;102386.88;6201047;28;20058;-75
2021/12/13 11:49:55;;;;;;;18.52;6.50;;;;;;;8.18;100.00;102388.66;6200898;28;20058;-76
2021/12/13 11:53:25;;;;;;;13.70;6.07;;;;;;;8.21;100.00;102383.34;6200329;28;20054;-76
2021/12/13 11:56:56;;;;;;;14.65;6.68;;;;;;;8.20;100.00;102388.63;6200893;28;20050;-77
2021/12/13 12:00:14;;;;;;;12.88;5.88;;;;;;;8.19;100.00;102386.88;6199276;28;20061;-78
2021/12/13 12:03:48;;;;;;;24.20;7.65;;;;;;;8.19;100.00;102379.03;6200729;28;20053;-78
2021/12/13 12:07:21;;;;;;;18.45;7.53;;;;;;;8.18;100.00;102378.19;6175647;28;20517;-79
2021/12/13 12:10:43;;;;;;;17.13;6.47;;;;;;;8.18;100.00;102383.41;6200175;28;20572;-78
2021/12/13 12:13:53;;;;;;;15.90;7.28;;;;;;;8.17;100.00;102373.81;6224029;28;20053;-79
2021/12/13 12:16:58;;;;;;;20.30;7.65;;;;;;;8.16;100.00;102381.69;6224696;28;20057;-79
2021/12/13 12:20:00;;;;;;;22.15;8.85;;;;;;;8.19;100.00;102376.41;6223779;28;20060;-77
2021/12/13 12:23:05;;;;;;;22.42;8.60;;;;;;;8.17;100.00;102384.28;6199339;28;20054;-78
2021/12/13 12:26:07;;;;;;;18.40;8.18;;;;;;;8.20;100.00;102383.38;6199905;28;20046;-77
2021/12/13 12:29:13;;;;;;;13.02;6.80;;;;;;;8.18;100.00;102379.94;6200294;28;20057;-77
2021/12/13 12:32:20;;;;;;;15.45;7.43;;;;;;;8.18;100.00;102382.53;6199587;28;20046;-78
2021/12/13 12:35:24;;;;;;;14.13;6.95;;;;;;;8.17;100.00;102378.19;6208000;28;20493;-78
2021/12/13 12:38:37;;;;;;;24.42;8.20;;;;;;;8.17;100.00;102376.41;6219271;28;20050;-76
2021/12/13 12:41:51;;;;;;;23.05;7.47;;;;;;;8.14;100.00;102372.13;6212240;28;20050;-79
2021/12/13 12:45:10;;;;;;;20.73;7.03;;;;;;;8.14;100.00;102382.59;6223626;28;20461;-77
2021/12/13 12:48:20;;;;;;;21.65;6.65;;;;;;;8.13;100.00;102378.25;6215872;28;20053;-77
2021/12/13 12:51:25;;;;;;;18.85;7.75;;;;;;;8.13;100.00;102382.63;6224653;28;20516;-72
2021/12/13 12:54:26;;;;;;;16.77;8.30;;;;;;;8.14;100.00;102386.97;6225400;28;20060;-79
2021/12/13 12:57:32;;;;;;;24.25;8.85;;;;;;;8.14;100.00;102374.72;6224455;28;20518;-78
2021/12/13 13:00:34;;;;;;;18.73;7.35;;;;;;;8.11;100.00;102374.78;6215568;28;20061;-78
2021/12/13 13:03:37;;;;;;;21.00;8.63;;;;;;;8.12;100.00;102375.63;6223898;28;20046;-77
2021/12/13 13:06:53;;;;;;;23.52;8.35;;;;;;;8.11;100.00;102374.78;6222447;28;20050;-78
2021/12/13 13:09:58;;;;;;;17.35;7.13;;;;;;;8.10;100.00;102372.19;6223410;28;20083;-78
2021/12/13 13:13:02;;;;;;;23.65;7.75;;;;;;;8.09;100.00;102373.94;6222380;28;20057;-78
2021/12/13 13:16:05;;;;;;;23.38;8.75;;;;;;;8.10;100.00;102367.81;6224691;28;20237;-79
2021/12/13 13:19:10;;;;;;;20.58;8.25;;;;;;;8.09;100.00;102379.19;6209104;28;20421;-76
2021/12/13 13:22:15;;;;;;;23.83;8.45;;;;;;;8.07;100.00;102378.34;6209469;28;20445;-76
2021/12/13 13:25:21;;;;;;;19.55;8.43;;;;;;;8.05;100.00;102369.66;6210241;28;20058;-77
2021/12/13 13:28:27;;;;;;;15.35;7.28;;;;;;;8.05;100.00;102369.66;6211135;28;20053;-78
2021/12/13 13:31:33;;;;;;;23.02;7.80;;;;;;;8.04;100.00;102365.31;6212086;28;20046;-77
2021/12/13 13:34:39;;;;;;;19.77;7.28;;;;;;;8.02;100.00;102376.69;6217772;28;20057;-77
2021/12/13 13:37:43;;;;;;;23.02;8.63;;;;;;;8.02;100.00;102374.06;6222735;28;20053;-77
2021/12/13 13:40:45;;;;;;;21.50;7.65;;;;;;;8.00;100.00;102371.50;6220078;28;20057;-77
2021/12/13 13:43:50;;;;;;;16.95;8.90;;;;;;;7.99;100.00;102381.97;6209429;28;20069;-77
2021/12/13 13:47:01;;;;;;;24.08;9.48;;;;;;;7.99;100.00;102382.81;6218788;28;20057;-78
2021/12/13 13:50:21;;;;;;;18.33;8.18;;;;;;;7.99;100.00;102376.72;6222209;28;20057;-77
2021/12/13 13:53:25;;;;;;;;;;;;;;;7.98;100.00;102375.00;6222984;28;20049;-76
2021/12/13 13:56:29;;;;;;;26.05;9.60;;;;;;;7.97;100.00;102368.91;6213630;28;19929;-77
2021/12/13 13:59:30;;;;;;;20.70;8.65;;;;;;;7.98;100.00;102378.47;6214687;28;20050;-79
2021/12/13 14:02:35;;;;;;;25.50;9.50;;;;;;;7.95;100.00;102375.94;6222088;28;20070;-76
2021/12/13 14:05:41;;;;;;;24.30;8.05;;;;;;;7.94;100.00;102376.81;6220078;28;20429;-77
2021/12/13 14:08:46;;;;;;;25.42;8.80;;;;;;;7.92;100.00;102385.59;6218608;28;20433;-76
2021/12/13 14:11:52;;;;;;;21.55;8.88;;;;;;;7.94;100.00;102379.41;6201828;28;20513;-76
2021/12/13 14:14:55;;;;;;;25.83;9.02;;;;;;;7.95;100.00;102385.50;6216923;28;20057;-76
2021/12/13 14:18:02;;;;;;;27.48;9.57;;;;;;;7.89;100.00;102395.19;6197354;28;20049;-76
2021/12/13 14:21:12;;;;;;;20.08;7.82;;;;;;;7.88;100.00;102390.00;6197249;28;20442;-76
2021/12/13 14:24:15;;;;;;;24.08;8.82;;;;;;;7.87;100.00;102389.13;6198156;28;20050;-76
2021/12/13 14:27:22;;;;;;;22.30;9.55;;;;;;;7.85;100.00;102390.91;6197631;28;20046;-76
2021/12/13 14:30:27;;;;;;;19.10;8.68;;;;;;;7.84;100.00;102389.19;6197817;28;20050;-76